createdAt,value
2022-12-19T00:02:13.809Z,12.43
2022-12-19T00:05:16.103Z,12.50
2022-12-19T00:08:18.320Z,11.35
2022-12-19T00:11:22.385Z,12.95
2022-12-19T00:14:24.592Z,12.05
2022-12-19T00:17:26.692Z,13.32
2022-12-19T00:20:28.943Z,13.25
2022-12-19T00:23:33.139Z,13.23
2022-12-19T00:26:36.990Z,12.38
2022-12-19T00:29:39.280Z,12.50
2022-12-19T00:32:41.505Z,12.77
2022-12-19T00:35:43.677Z,12.45
2022-12-19T00:38:46.944Z,13.95
2022-12-19T00:41:49.184Z,13.32
2022-12-19T00:44:51.616Z,13.02
2022-12-19T00:47:53.754Z,13.80
2022-12-19T00:51:04.201Z,11.60
2022-12-19T00:54:10.820Z,12.55
2022-12-19T00:57:13.974Z,12.82
2022-12-19T01:00:17.515Z,13.18
2022-12-19T01:03:19.763Z,14.20
2022-12-19T01:06:22.045Z,14.75
2022-12-19T01:09:24.255Z,14.90
2022-12-19T01:12:44.860Z,13.50
2022-12-19T01:15:47.194Z,13.75
2022-12-19T01:18:49.344Z,13.70
2022-12-19T01:21:51.491Z,12.60
2022-12-19T01:24:54.202Z,13.52
2022-12-19T01:27:57.389Z,11.77
2022-12-19T01:30:59.555Z,13.85
2022-12-19T01:34:01.763Z,13.43
2022-12-19T01:37:03.968Z,13.82
2022-12-19T01:40:06.834Z,14.23
2022-12-19T01:43:14.986Z,12.23
2022-12-19T01:46:17.577Z,13.48
2022-12-19T01:49:33.283Z,13.45
2022-12-19T01:52:35.641Z,14.10
2022-12-19T01:55:40.181Z,13.68
2022-12-19T01:58:46.625Z,13.88
2022-12-19T02:01:52.317Z,13.25
2022-12-19T02:04:57.553Z,13.73
2022-12-19T02:08:01.349Z,13.23
2022-12-19T02:11:05.270Z,11.93
2022-12-19T02:14:08.379Z,13.73
2022-12-19T02:17:13.564Z,13.45
2022-12-19T02:20:36.283Z,13.30
2022-12-19T02:23:50.205Z,11.98
2022-12-19T02:27:15.408Z,13.68
2022-12-19T02:30:56.739Z,13.48
2022-12-19T02:34:25.085Z,13.95
2022-12-19T02:37:49.688Z,13.85
2022-12-19T02:41:02.947Z,12.80
2022-12-19T02:44:06.353Z,13.27
2022-12-19T02:47:10.459Z,13.60
2022-12-19T02:50:13.703Z,13.13
2022-12-19T02:53:16.826Z,13.35
2022-12-19T02:56:45.176Z,14.18
2022-12-19T02:59:53.135Z,14.15
2022-12-19T03:03:29.330Z,14.25
2022-12-19T03:06:39.446Z,13.15
2022-12-19T03:09:58.848Z,13.32
2022-12-19T03:13:09.772Z,14.77
2022-12-19T03:16:14.807Z,13.13
2022-12-19T03:19:17.295Z,13.52
2022-12-19T03:22:19.709Z,14.00
2022-12-19T03:25:24.214Z,15.50
2022-12-19T03:28:38.963Z,14.82
2022-12-19T03:31:42.434Z,15.60
2022-12-19T03:34:55.804Z,15.13
2022-12-19T03:38:03.117Z,13.30
2022-12-19T03:41:10.261Z,15.85
2022-12-19T03:44:15.272Z,14.43
2022-12-19T03:47:43.441Z,14.20
2022-12-19T03:51:28.537Z,14.73
2022-12-19T03:54:39.922Z,14.30
2022-12-19T03:57:46.287Z,14.38
2022-12-19T04:00:51.027Z,15.57
2022-12-19T04:03:53.581Z,15.20
2022-12-19T04:06:57.497Z,16.52
2022-12-19T04:10:04.473Z,15.88
2022-12-19T04:13:12.752Z,13.93
2022-12-19T04:16:43.267Z,13.73
2022-12-19T04:20:09.590Z,14.18
2022-12-19T04:23:31.445Z,16.15
2022-12-19T04:26:35.562Z,16.20
2022-12-19T04:29:39.497Z,15.05
2022-12-19T04:32:46.056Z,14.57
2022-12-19T04:35:48.487Z,14.35
2022-12-19T04:38:50.833Z,16.10
2022-12-19T04:41:53.054Z,16.45
2022-12-19T04:44:55.404Z,15.80
2022-12-19T04:47:57.789Z,15.27
2022-12-19T04:51:00.040Z,16.60
2022-12-19T04:54:02.330Z,15.23
2022-12-19T04:57:04.875Z,16.40
2022-12-19T05:00:08.875Z,15.13
2022-12-19T05:03:11.122Z,16.55
2022-12-19T05:06:14.610Z,15.48
2022-12-19T05:09:16.839Z,14.85
2022-12-19T05:12:19.030Z,15.63
2022-12-19T05:15:21.205Z,16.40
2022-12-19T05:18:23.458Z,15.35
2022-12-19T05:21:25.620Z,16.42
2022-12-19T05:24:27.866Z,16.98
2022-12-19T05:27:30.005Z,15.85
2022-12-19T05:30:32.557Z,15.52
2022-12-19T05:33:35.641Z,16.25
2022-12-19T05:36:37.893Z,16.33
2022-12-19T05:39:40.022Z,16.15
2022-12-19T05:42:42.266Z,15.73
2022-12-19T05:45:44.625Z,16.17
2022-12-19T05:48:47.161Z,16.65
2022-12-19T05:51:49.839Z,16.13
2022-12-19T05:54:52.236Z,17.58
2022-12-19T05:57:54.539Z,16.67
2022-12-19T06:01:02.841Z,16.65
2022-12-19T06:04:05.252Z,14.80
2022-12-19T06:07:07.393Z,17.05
2022-12-19T06:10:09.762Z,17.25
2022-12-19T06:13:11.875Z,17.63
2022-12-19T06:16:16.674Z,18.48
2022-12-19T06:19:18.918Z,17.23
2022-12-19T06:22:22.150Z,17.40
2022-12-19T06:25:24.373Z,18.50
2022-12-19T06:28:31.032Z,17.90
2022-12-19T06:31:33.339Z,17.42
2022-12-19T06:38:01.001Z,18.65
2022-12-19T06:41:23.308Z,18.25
2022-12-19T06:44:25.568Z,18.17
2022-12-19T06:47:27.809Z,18.10
2022-12-19T06:50:29.939Z,18.17
2022-12-19T06:53:33.321Z,19.55
2022-12-19T06:56:39.839Z,19.00
2022-12-19T06:59:42.439Z,18.88
2022-12-19T07:02:53.349Z,20.25
2022-12-19T07:05:55.887Z,19.70
2022-12-19T07:08:58.004Z,17.90
2022-12-19T07:12:01.087Z,19.33
2022-12-19T07:15:03.491Z,21.40
2022-12-19T07:18:07.960Z,19.45
2022-12-19T07:21:11.494Z,18.10
2022-12-19T07:24:15.156Z,20.25
2022-12-19T07:27:17.789Z,18.92
2022-12-19T07:30:20.159Z,19.90
2022-12-19T07:33:22.328Z,20.35
2022-12-19T07:36:24.520Z,20.10
2022-12-19T07:39:27.260Z,18.25
2022-12-19T07:42:32.605Z,20.58
2022-12-19T07:45:38.026Z,18.73
2022-12-19T07:48:40.296Z,18.67
2022-12-19T07:51:42.555Z,19.73
2022-12-19T07:54:44.751Z,21.02
2022-12-19T07:57:46.948Z,18.63
2022-12-19T08:01:00.915Z,17.80
2022-12-19T08:04:03.172Z,17.45
2022-12-19T08:07:05.496Z,19.25
2022-12-19T08:10:08.313Z,20.15
2022-12-19T08:13:10.724Z,17.60
2022-12-19T08:16:12.977Z,19.17
2022-12-19T08:19:15.221Z,19.00
2022-12-19T08:22:17.482Z,19.65
2022-12-19T08:25:19.662Z,20.08
2022-12-19T08:28:21.802Z,19.17
2022-12-19T08:31:26.307Z,19.48
2022-12-19T08:34:28.629Z,20.20
2022-12-19T08:37:30.895Z,18.73
2022-12-19T08:40:33.087Z,19.73
2022-12-19T08:43:36.448Z,21.00
2022-12-19T08:46:38.764Z,18.67
2022-12-19T08:49:41.234Z,19.58
2022-12-19T08:52:43.461Z,17.75
2022-12-19T08:55:45.799Z,20.40
2022-12-19T08:58:48.420Z,20.40
2022-12-19T09:01:50.858Z,21.80
2022-12-19T09:05:59.778Z,21.40
2022-12-19T09:08:15.273Z,18.77
2022-12-19T09:11:19.875Z,21.08
2022-12-19T09:14:22.115Z,18.70
2022-12-19T09:17:24.352Z,18.30
2022-12-19T09:20:27.112Z,20.38
2022-12-19T09:23:31.736Z,21.17
2022-12-19T09:26:34.045Z,19.15
2022-12-19T09:29:36.193Z,19.55
2022-12-19T09:32:39.169Z,20.88
2022-12-19T09:35:52.617Z,19.45
2022-12-19T09:38:58.485Z,21.48
2022-12-19T09:42:06.705Z,18.92
2022-12-19T09:45:32.612Z,20.00
2022-12-19T09:48:35.249Z,19.33
2022-12-19T09:52:17.084Z,19.98
2022-12-19T09:55:28.264Z,21.20
2022-12-19T09:58:37.739Z,20.15
2022-12-19T10:01:59.066Z,20.38
2022-12-19T10:05:44.256Z,21.30
2022-12-19T10:08:50.040Z,19.92
2022-12-19T10:12:43.722Z,20.05
2022-12-19T10:15:44.739Z,22.55
2022-12-19T10:18:57.084Z,18.80
2022-12-19T10:22:19.540Z,22.65
2022-12-19T10:25:29.219Z,21.10
2022-12-19T10:28:49.686Z,19.20
2022-12-19T10:32:11.008Z,19.60
2022-12-19T10:35:20.430Z,21.77
2022-12-19T10:38:36.079Z,21.00
2022-12-19T10:41:45.055Z,19.08
2022-12-19T10:44:49.444Z,20.58
2022-12-19T10:47:56.927Z,22.42
2022-12-19T10:51:06.597Z,20.55
2022-12-19T10:54:09.351Z,20.02
2022-12-19T10:57:22.118Z,22.40
2022-12-19T11:00:24.394Z,20.88
2022-12-19T11:03:26.862Z,21.92
2022-12-19T11:06:38.021Z,19.65
2022-12-19T11:09:44.211Z,22.38
2022-12-19T11:18:34.396Z,20.52
2022-12-19T11:21:28.312Z,19.48
2022-12-19T11:29:17.340Z,19.17
2022-12-19T11:29:31.804Z,20.30
2022-12-19T11:29:47.130Z,20.67
2022-12-19T11:33:38.241Z,21.15
2022-12-19T11:37:01.595Z,20.15
2022-12-19T11:40:16.488Z,21.02
2022-12-19T11:43:45.032Z,21.23
2022-12-19T11:46:54.153Z,18.23
2022-12-19T11:50:04.307Z,20.27
2022-12-19T11:53:23.692Z,21.90
2022-12-19T11:56:28.056Z,19.98
2022-12-19T11:59:37.250Z,18.38
2022-12-19T12:03:00.697Z,20.00
2022-12-19T12:06:13.163Z,20.40
2022-12-19T12:15:10.215Z,18.73
2022-12-19T12:20:53.345Z,20.60
2022-12-19T12:27:26.715Z,20.58
2022-12-19T12:31:23.672Z,20.45
2022-12-19T12:31:40.507Z,20.05
2022-12-19T12:32:02.270Z,19.30
2022-12-19T12:38:51.578Z,18.83
2022-12-19T12:45:18.650Z,18.63
2022-12-19T12:48:41.567Z,19.27
2022-12-19T12:51:44.301Z,18.88
2022-12-19T12:54:48.810Z,17.80
2022-12-19T12:57:51.144Z,20.48
2022-12-19T13:01:18.344Z,18.40
2022-12-19T13:04:25.841Z,18.95
2022-12-19T13:07:51.283Z,18.48
2022-12-19T13:11:00.218Z,19.88
2022-12-19T13:14:02.832Z,18.95
2022-12-19T13:17:09.743Z,18.63
2022-12-19T13:20:34.976Z,17.10
2022-12-19T13:23:37.114Z,19.00
2022-12-19T13:26:50.123Z,19.52
2022-12-19T13:30:01.522Z,19.08
2022-12-19T13:33:05.351Z,18.90
2022-12-19T13:39:50.170Z,18.02
2022-12-19T13:40:32.773Z,18.80
2022-12-19T13:43:48.291Z,19.90
2022-12-19T13:46:50.678Z,19.20
2022-12-19T13:49:53.825Z,20.80
2022-12-19T13:52:56.308Z,20.90
2022-12-19T13:56:13.740Z,19.25
2022-12-19T13:59:16.170Z,19.77
2022-12-19T14:02:32.425Z,19.85
2022-12-19T14:06:17.899Z,20.98
2022-12-19T14:11:23.279Z,20.70
2022-12-19T14:13:57.406Z,19.10
2022-12-19T14:16:19.968Z,19.52
2022-12-19T14:19:29.123Z,19.30
2022-12-19T14:22:32.636Z,21.58
2022-12-19T14:28:17.342Z,20.05
2022-12-19T14:29:17.569Z,21.02
2022-12-19T14:33:44.056Z,21.40
2022-12-19T14:36:08.790Z,19.00
2022-12-19T14:39:24.218Z,17.95
2022-12-19T14:43:56.316Z,21.75
2022-12-19T14:54:14.514Z,20.63
2022-12-19T14:54:17.516Z,21.30
2022-12-19T14:54:29.757Z,20.77
2022-12-19T14:57:04.595Z,20.20
2022-12-19T15:00:50.720Z,19.65
2022-12-19T15:04:52.467Z,19.20
2022-12-19T15:07:28.161Z,19.58
2022-12-19T15:11:04.089Z,20.52
2022-12-19T15:14:52.404Z,21.05
2022-12-19T15:17:26.059Z,22.17
2022-12-19T15:20:28.198Z,21.52
2022-12-19T15:23:31.239Z,22.17
2022-12-19T15:26:36.031Z,17.88
2022-12-19T15:29:38.687Z,19.67
2022-12-19T15:32:43.742Z,19.33
2022-12-19T15:35:45.997Z,22.85
2022-12-19T15:38:48.187Z,22.38
2022-12-19T15:41:53.773Z,22.02
2022-12-19T15:45:01.240Z,21.17
2022-12-19T15:48:04.215Z,20.27
2022-12-19T15:51:09.396Z,20.38
2022-12-19T15:57:41.103Z,20.63
2022-12-19T16:00:52.916Z,22.80
2022-12-19T16:03:58.816Z,22.25
2022-12-19T16:07:01.339Z,22.08
2022-12-19T16:10:04.336Z,20.33
2022-12-19T16:13:07.363Z,20.92
2022-12-19T16:16:15.305Z,19.90
2022-12-19T16:19:29.972Z,22.85
2022-12-19T16:22:32.471Z,21.05
2022-12-19T16:25:44.364Z,21.73
2022-12-19T16:28:46.519Z,23.30
2022-12-19T16:31:48.882Z,23.02
2022-12-19T16:34:52.713Z,22.98
2022-12-19T16:37:55.160Z,22.98
2022-12-19T16:40:57.676Z,23.73
2022-12-19T16:44:00.927Z,22.50
2022-12-19T16:47:03.227Z,22.55
2022-12-19T16:50:25.269Z,21.70
2022-12-19T16:53:27.813Z,22.05
2022-12-19T16:56:41.834Z,23.45
2022-12-19T16:59:44.032Z,23.02
2022-12-19T17:02:52.411Z,23.08
2022-12-19T17:05:55.101Z,22.73
2022-12-19T17:09:00.827Z,23.20
2022-12-19T17:12:04.550Z,22.73
2022-12-19T17:15:24.587Z,22.08
2022-12-19T17:18:36.445Z,23.08
2022-12-19T17:21:49.765Z,23.90
2022-12-19T17:25:00.337Z,23.20
2022-12-19T17:28:08.787Z,22.08
2022-12-19T17:31:23.268Z,23.33
2022-12-19T17:34:38.239Z,23.08
2022-12-19T17:37:45.358Z,23.08
2022-12-19T17:40:48.422Z,22.50
2022-12-19T17:43:52.244Z,22.27
2022-12-19T17:46:55.632Z,21.75
2022-12-19T17:49:58.062Z,21.85
2022-12-19T17:53:00.212Z,22.10
2022-12-19T17:56:03.852Z,21.83
2022-12-19T17:59:06.711Z,20.23
2022-12-19T18:02:28.909Z,21.60
2022-12-19T18:05:36.399Z,20.92
2022-12-19T18:08:38.797Z,19.08
2022-12-19T18:11:42.302Z,20.77
2022-12-19T18:14:44.664Z,21.85
2022-12-19T18:17:48.311Z,23.17
2022-12-19T18:20:50.724Z,21.20
2022-12-19T18:23:53.089Z,21.20
2022-12-19T18:26:56.005Z,20.88
2022-12-19T18:29:58.115Z,21.80
2022-12-19T18:33:02.664Z,20.75
2022-12-19T18:36:13.738Z,21.67
2022-12-19T18:39:22.115Z,20.45
2022-12-19T18:42:24.339Z,21.15
2022-12-19T18:45:48.449Z,20.90
2022-12-19T18:48:50.929Z,20.10
2022-12-19T18:51:54.124Z,20.65
2022-12-19T18:54:56.233Z,19.08
2022-12-19T18:57:58.361Z,19.92
2022-12-19T19:01:01.628Z,21.77
2022-12-19T19:04:04.052Z,22.40
2022-12-19T19:07:06.258Z,20.58
2022-12-19T19:10:25.324Z,21.63
2022-12-19T19:13:37.467Z,20.33
2022-12-19T19:16:40.451Z,19.17
2022-12-19T19:19:42.763Z,21.52
2022-12-19T19:22:45.805Z,20.05
2022-12-19T19:25:47.953Z,20.48
2022-12-19T19:28:52.419Z,22.92
2022-12-19T19:31:55.093Z,20.45
2022-12-19T19:34:57.251Z,21.95
2022-12-19T19:38:02.523Z,21.98
2022-12-19T19:41:05.100Z,22.70
2022-12-19T19:44:07.503Z,22.20
2022-12-19T19:47:09.783Z,22.35
2022-12-19T19:50:12.622Z,22.40
2022-12-19T19:53:14.780Z,23.40
2022-12-19T19:56:16.958Z,21.65
2022-12-19T19:59:19.190Z,21.30
2022-12-19T20:02:21.539Z,22.30
2022-12-19T20:05:23.964Z,22.48
2022-12-19T20:08:26.258Z,22.15
2022-12-19T20:11:28.420Z,20.85
2022-12-19T20:14:30.746Z,22.20
2022-12-19T20:17:33.018Z,22.00
2022-12-19T20:20:35.276Z,21.88
2022-12-19T20:23:38.770Z,22.23
2022-12-19T20:26:41.230Z,21.90
2022-12-19T20:29:43.416Z,21.35
2022-12-19T20:32:45.633Z,20.55
2022-12-19T20:35:47.804Z,22.63
2022-12-19T20:38:50.495Z,22.90
2022-12-19T20:41:53.329Z,22.23
2022-12-19T20:44:55.596Z,21.58
2022-12-19T20:47:57.911Z,19.92
2022-12-19T20:51:02.407Z,21.35
2022-12-19T20:54:05.327Z,20.10
2022-12-19T20:57:07.509Z,22.10
2022-12-19T21:00:10.772Z,21.48
2022-12-19T21:03:29.772Z,22.65
2022-12-19T21:06:32.524Z,23.13
2022-12-19T21:09:34.858Z,21.85
2022-12-19T21:12:41.107Z,22.38
2022-12-19T21:15:56.060Z,21.33
2022-12-19T21:18:58.543Z,22.40
2022-12-19T21:22:00.764Z,23.42
2022-12-19T21:25:03.085Z,22.70
2022-12-19T21:28:05.710Z,21.38
2022-12-19T21:31:20.259Z,22.55
2022-12-19T21:34:22.584Z,23.05
2022-12-19T21:37:24.864Z,23.48
2022-12-19T21:40:27.184Z,23.65
2022-12-19T21:43:32.562Z,21.77
2022-12-19T21:46:34.908Z,23.38
2022-12-19T21:49:37.122Z,22.30
2022-12-19T21:52:39.710Z,21.90
2022-12-19T21:55:41.876Z,19.88
2022-12-19T21:58:44.137Z,21.27
2022-12-19T22:01:46.686Z,23.15
2022-12-19T22:04:50.083Z,22.42
2022-12-19T22:07:52.302Z,21.85
2022-12-19T22:10:54.459Z,21.30
2022-12-19T22:13:58.797Z,22.55
2022-12-19T22:17:00.950Z,22.88
2022-12-19T22:20:03.497Z,22.70
2022-12-19T22:23:11.318Z,20.85
2022-12-19T22:26:18.593Z,21.93
2022-12-19T22:29:20.887Z,21.98
2022-12-19T22:32:23.106Z,23.20
2022-12-19T22:35:25.252Z,21.65
2022-12-19T22:38:27.529Z,22.05
2022-12-19T22:41:30.129Z,22.98
2022-12-19T22:44:32.274Z,20.83
2022-12-19T22:47:35.405Z,21.00
2022-12-19T22:50:37.641Z,20.52
2022-12-19T22:53:40.244Z,20.98
2022-12-19T22:56:42.543Z,21.95
2022-12-19T22:59:44.775Z,21.63
2022-12-19T23:02:47.136Z,20.27
2022-12-19T23:05:51.986Z,20.13
2022-12-19T23:08:54.911Z,22.52
2022-12-19T23:11:57.072Z,21.40
2022-12-19T23:14:59.457Z,23.05
2022-12-19T23:18:01.756Z,21.40
2022-12-19T23:21:09.846Z,22.10
2022-12-19T23:24:12.497Z,20.73
2022-12-19T23:27:14.684Z,20.98
2022-12-19T23:30:18.439Z,22.02
2022-12-19T23:33:20.693Z,20.92
2022-12-19T23:37:00.316Z,22.13
2022-12-19T23:39:45.871Z,22.65
2022-12-19T23:42:48.034Z,22.85
2022-12-19T23:45:50.212Z,22.27
2022-12-19T23:48:56.074Z,22.02
2022-12-19T23:51:58.298Z,22.20
2022-12-19T23:55:00.580Z,21.15
2022-12-19T23:58:06.578Z,19.70
